sensor_id;sensor_type;location;lat;lon;timestamp;temperature;humidity
15286;DHT22;7744;52.172;10.668;2023-08-06T00:00:19;16.20;99.90
15286;DHT22;7744;52.172;10.668;2023-08-06T00:02:45;16.20;1.00
15286;DHT22;7744;52.172;10.668;2023-08-06T00:05:11;16.10;99.90
15286;DHT22;7744;52.172;10.668;2023-08-06T00:07:36;16.00;1.00
15286;DHT22;7744;52.172;10.668;2023-08-06T00:10:02;15.90;29.60
15286;DHT22;7744;52.172;10.668;2023-08-06T00:12:28;15.90;99.90
15286;DHT22;7744;52.172;10.668;2023-08-06T00:14:53;15.90;1.00
15286;DHT22;7744;52.172;10.668;2023-08-06T00:17:19;15.90;1.00
15286;DHT22;7744;52.172;10.668;2023-08-06T00:19:45;16.00;1.00
15286;DHT22;7744;52.172;10.668;2023-08-06T00:22:10;16.00;99.90
15286;DHT22;7744;52.172;10.668;2023-08-06T00:24:36;16.00;99.90
15286;DHT22;7744;52.172;10.668;2023-08-06T00:27:02;16.00;99.90
15286;DHT22;7744;52.172;10.668;2023-08-06T00:29:28;15.90;99.90
15286;DHT22;7744;52.172;10.668;2023-08-06T00:31:54;16.00;99.90
15286;DHT22;7744;52.172;10.668;2023-08-06T00:34:19;16.10;85.10
15286;DHT22;7744;52.172;10.668;2023-08-06T00:36:45;16.00;1.00
15286;DHT22;7744;52.172;10.668;2023-08-06T00:39:11;15.90;1.00
15286;DHT22;7744;52.172;10.668;2023-08-06T00:41:36;15.90;1.00
15286;DHT22;7744;52.172;10.668;2023-08-06T00:44:02;16.00;1.00
15286;DHT22;7744;52.172;10.668;2023-08-06T00:46:42;16.00;1.00
15286;DHT22;7744;52.172;10.668;2023-08-06T00:49:08;16.10;1.00
15286;DHT22;7744;52.172;10.668;2023-08-06T00:51:34;16.10;1.00
15286;DHT22;7744;52.172;10.668;2023-08-06T00:54:03;16.10;99.90
15286;DHT22;7744;52.172;10.668;2023-08-06T00:56:28;16.00;1.00
15286;DHT22;7744;52.172;10.668;2023-08-06T00:59:01;16.10;99.90
15286;DHT22;7744;52.172;10.668;2023-08-06T01:01:39;16.00;1.00
15286;DHT22;7744;52.172;10.668;2023-08-06T01:04:05;16.00;99.90
15286;DHT22;7744;52.172;10.668;2023-08-06T01:09:39;16.00;64.40
15286;DHT22;7744;52.172;10.668;2023-08-06T01:12:45;16.00;1.00
15286;DHT22;7744;52.172;10.668;2023-08-06T01:15:22;16.00;1.00
15286;DHT22;7744;52.172;10.668;2023-08-06T01:20:41;16.00;63.60
15286;DHT22;7744;52.172;10.668;2023-08-06T01:23:07;16.00;1.00
15286;DHT22;7744;52.172;10.668;2023-08-06T01:31:26;16.00;1.00
15286;DHT22;7744;52.172;10.668;2023-08-06T01:33:53;16.00;1.00
15286;DHT22;7744;52.172;10.668;2023-08-06T01:36:22;16.00;3.40
15286;DHT22;7744;52.172;10.668;2023-08-06T01:38:48;16.00;99.90
15286;DHT22;7744;52.172;10.668;2023-08-06T01:41:14;16.00;1.00
15286;DHT22;7744;52.172;10.668;2023-08-06T01:43:39;16.00;1.00
15286;DHT22;7744;52.172;10.668;2023-08-06T01:46:05;16.00;99.90
15286;DHT22;7744;52.172;10.668;2023-08-06T01:48:31;15.90;99.90
15286;DHT22;7744;52.172;10.668;2023-08-06T01:50:56;15.80;99.90
15286;DHT22;7744;52.172;10.668;2023-08-06T01:53:22;15.80;1.00
15286;DHT22;7744;52.172;10.668;2023-08-06T01:55:49;15.70;99.90
15286;DHT22;7744;52.172;10.668;2023-08-06T01:58:15;15.80;1.00
15286;DHT22;7744;52.172;10.668;2023-08-06T02:00:40;15.80;99.90
15286;DHT22;7744;52.172;10.668;2023-08-06T02:03:06;15.80;99.90
15286;DHT22;7744;52.172;10.668;2023-08-06T02:05:32;15.70;1.00
15286;DHT22;7744;52.172;10.668;2023-08-06T02:07:57;15.80;1.00
15286;DHT22;7744;52.172;10.668;2023-08-06T02:10:23;15.80;99.90
15286;DHT22;7744;52.172;10.668;2023-08-06T02:12:49;15.80;99.90
15286;DHT22;7744;52.172;10.668;2023-08-06T02:15:14;15.80;18.20
15286;DHT22;7744;52.172;10.668;2023-08-06T02:17:40;15.80;99.90
15286;DHT22;7744;52.172;10.668;2023-08-06T02:20:06;15.80;1.00
15286;DHT22;7744;52.172;10.668;2023-08-06T02:22:32;15.80;1.00
15286;DHT22;7744;52.172;10.668;2023-08-06T02:24:58;15.80;1.00
15286;DHT22;7744;52.172;10.668;2023-08-06T02:27:24;15.80;99.90
15286;DHT22;7744;52.172;10.668;2023-08-06T02:29:50;15.80;99.90
15286;DHT22;7744;52.172;10.668;2023-08-06T02:32:16;15.60;1.00
15286;DHT22;7744;52.172;10.668;2023-08-06T02:34:41;15.60;99.90
15286;DHT22;7744;52.172;10.668;2023-08-06T02:37:07;15.50;1.00
15286;DHT22;7744;52.172;10.668;2023-08-06T02:39:33;15.50;1.00
15286;DHT22;7744;52.172;10.668;2023-08-06T02:41:59;15.50;13.70
15286;DHT22;7744;52.172;10.668;2023-08-06T02:44:28;15.60;1.00
15286;DHT22;7744;52.172;10.668;2023-08-06T02:46:54;15.50;99.90
15286;DHT22;7744;52.172;10.668;2023-08-06T02:49:19;15.60;1.00
15286;DHT22;7744;52.172;10.668;2023-08-06T02:51:45;15.60;1.00
15286;DHT22;7744;52.172;10.668;2023-08-06T02:54:11;15.60;1.00
15286;DHT22;7744;52.172;10.668;2023-08-06T02:56:37;15.60;99.90
15286;DHT22;7744;52.172;10.668;2023-08-06T02:59:03;15.50;1.00
15286;DHT22;7744;52.172;10.668;2023-08-06T03:01:29;15.40;1.00
15286;DHT22;7744;52.172;10.668;2023-08-06T03:03:55;15.30;1.00
15286;DHT22;7744;52.172;10.668;2023-08-06T03:06:20;15.20;99.90
15286;DHT22;7744;52.172;10.668;2023-08-06T03:08:46;15.30;99.90
15286;DHT22;7744;52.172;10.668;2023-08-06T03:11:12;15.30;1.00
15286;DHT22;7744;52.172;10.668;2023-08-06T03:13:37;15.40;99.90
15286;DHT22;7744;52.172;10.668;2023-08-06T03:16:03;15.40;99.90
15286;DHT22;7744;52.172;10.668;2023-08-06T03:18:29;15.30;83.70
15286;DHT22;7744;52.172;10.668;2023-08-06T03:20:54;15.30;99.90
15286;DHT22;7744;52.172;10.668;2023-08-06T03:23:20;15.30;1.00
15286;DHT22;7744;52.172;10.668;2023-08-06T03:25:46;15.30;1.00
15286;DHT22;7744;52.172;10.668;2023-08-06T03:28:12;15.30;99.90
15286;DHT22;7744;52.172;10.668;2023-08-06T03:30:38;15.40;1.00
15286;DHT22;7744;52.172;10.668;2023-08-06T03:33:04;15.40;1.00
15286;DHT22;7744;52.172;10.668;2023-08-06T03:35:29;15.50;1.00
15286;DHT22;7744;52.172;10.668;2023-08-06T03:37:55;15.50;1.00
15286;DHT22;7744;52.172;10.668;2023-08-06T03:40:21;15.60;1.00
15286;DHT22;7744;52.172;10.668;2023-08-06T03:42:47;15.60;93.50
15286;DHT22;7744;52.172;10.668;2023-08-06T03:45:12;15.60;99.90
15286;DHT22;7744;52.172;10.668;2023-08-06T03:47:38;15.70;15.00
15286;DHT22;7744;52.172;10.668;2023-08-06T03:50:04;15.60;1.00
15286;DHT22;7744;52.172;10.668;2023-08-06T03:52:29;15.60;1.00
15286;DHT22;7744;52.172;10.668;2023-08-06T03:54:55;15.50;99.90
15286;DHT22;7744;52.172;10.668;2023-08-06T03:57:20;15.50;99.90
15286;DHT22;7744;52.172;10.668;2023-08-06T03:59:46;15.50;1.00
15286;DHT22;7744;52.172;10.668;2023-08-06T04:02:12;15.60;1.00
15286;DHT22;7744;52.172;10.668;2023-08-06T04:04:37;15.60;99.90
15286;DHT22;7744;52.172;10.668;2023-08-06T04:07:03;15.60;1.00
15286;DHT22;7744;52.172;10.668;2023-08-06T04:09:29;15.60;1.00
15286;DHT22;7744;52.172;10.668;2023-08-06T04:11:55;15.60;1.00
15286;DHT22;7744;52.172;10.668;2023-08-06T04:14:21;15.50;99.90
15286;DHT22;7744;52.172;10.668;2023-08-06T04:16:46;15.40;99.90
15286;DHT22;7744;52.172;10.668;2023-08-06T04:19:12;15.30;97.10
15286;DHT22;7744;52.172;10.668;2023-08-06T04:21:38;15.30;99.90
15286;DHT22;7744;52.172;10.668;2023-08-06T04:24:03;15.20;1.00
15286;DHT22;7744;52.172;10.668;2023-08-06T04:26:29;15.20;1.00
15286;DHT22;7744;52.172;10.668;2023-08-06T04:28:55;15.10;1.00
15286;DHT22;7744;52.172;10.668;2023-08-06T04:31:21;15.10;99.90
15286;DHT22;7744;52.172;10.668;2023-08-06T04:33:47;15.20;1.00
15286;DHT22;7744;52.172;10.668;2023-08-06T04:36:13;15.30;99.90
15286;DHT22;7744;52.172;10.668;2023-08-06T04:38:38;15.30;99.90
15286;DHT22;7744;52.172;10.668;2023-08-06T04:41:06;15.30;99.90
15286;DHT22;7744;52.172;10.668;2023-08-06T04:43:32;15.40;99.90
15286;DHT22;7744;52.172;10.668;2023-08-06T04:45:58;15.50;1.00
15286;DHT22;7744;52.172;10.668;2023-08-06T04:48:23;15.60;1.00
15286;DHT22;7744;52.172;10.668;2023-08-06T04:50:50;15.60;99.90
15286;DHT22;7744;52.172;10.668;2023-08-06T04:53:16;15.70;1.00
15286;DHT22;7744;52.172;10.668;2023-08-06T04:55:42;15.70;99.90
15286;DHT22;7744;52.172;10.668;2023-08-06T04:58:09;15.70;99.90
15286;DHT22;7744;52.172;10.668;2023-08-06T05:00:35;15.70;99.90
15286;DHT22;7744;52.172;10.668;2023-08-06T05:03:00;15.70;99.90
15286;DHT22;7744;52.172;10.668;2023-08-06T05:05:27;15.80;1.00
15286;DHT22;7744;52.172;10.668;2023-08-06T05:07:55;15.80;5.60
15286;DHT22;7744;52.172;10.668;2023-08-06T05:10:23;15.80;99.90
15286;DHT22;7744;52.172;10.668;2023-08-06T05:12:49;15.90;1.00
15286;DHT22;7744;52.172;10.668;2023-08-06T05:15:15;15.90;1.00
15286;DHT22;7744;52.172;10.668;2023-08-06T05:17:40;15.90;99.90
15286;DHT22;7744;52.172;10.668;2023-08-06T05:20:06;16.00;1.00
15286;DHT22;7744;52.172;10.668;2023-08-06T05:22:33;16.00;1.00
15286;DHT22;7744;52.172;10.668;2023-08-06T05:27:26;16.20;99.90
15286;DHT22;7744;52.172;10.668;2023-08-06T05:29:55;16.30;1.00
15286;DHT22;7744;52.172;10.668;2023-08-06T05:32:21;16.30;1.00
15286;DHT22;7744;52.172;10.668;2023-08-06T05:34:47;16.40;99.90
15286;DHT22;7744;52.172;10.668;2023-08-06T05:37:12;16.50;1.00
15286;DHT22;7744;52.172;10.668;2023-08-06T05:39:38;16.50;1.00
15286;DHT22;7744;52.172;10.668;2023-08-06T05:42:04;16.60;99.90
15286;DHT22;7744;52.172;10.668;2023-08-06T05:44:29;16.60;1.00
15286;DHT22;7744;52.172;10.668;2023-08-06T05:46:55;16.60;1.00
15286;DHT22;7744;52.172;10.668;2023-08-06T05:49:21;16.70;1.00
15286;DHT22;7744;52.172;10.668;2023-08-06T05:51:46;16.70;99.90
15286;DHT22;7744;52.172;10.668;2023-08-06T05:54:12;16.70;1.00
15286;DHT22;7744;52.172;10.668;2023-08-06T05:56:37;16.70;1.00
15286;DHT22;7744;52.172;10.668;2023-08-06T05:59:03;16.80;99.90
15286;DHT22;7744;52.172;10.668;2023-08-06T06:01:29;16.80;99.90
15286;DHT22;7744;52.172;10.668;2023-08-06T06:03:54;16.70;1.00
15286;DHT22;7744;52.172;10.668;2023-08-06T06:06:20;16.80;1.00
15286;DHT22;7744;52.172;10.668;2023-08-06T06:08:45;16.70;1.00
15286;DHT22;7744;52.172;10.668;2023-08-06T06:11:11;16.70;1.00
15286;DHT22;7744;52.172;10.668;2023-08-06T06:13:37;16.80;99.90
15286;DHT22;7744;52.172;10.668;2023-08-06T06:16:02;16.90;1.00
15286;DHT22;7744;52.172;10.668;2023-08-06T06:18:28;16.90;1.00
15286;DHT22;7744;52.172;10.668;2023-08-06T06:20:53;17.10;1.00
15286;DHT22;7744;52.172;10.668;2023-08-06T06:23:19;17.10;1.00
15286;DHT22;7744;52.172;10.668;2023-08-06T06:25:49;17.30;1.00
15286;DHT22;7744;52.172;10.668;2023-08-06T06:28:17;17.40;1.00
15286;DHT22;7744;52.172;10.668;2023-08-06T06:30:43;17.50;56.10
15286;DHT22;7744;52.172;10.668;2023-08-06T06:33:08;17.70;1.00
15286;DHT22;7744;52.172;10.668;2023-08-06T06:35:34;18.00;1.00
15286;DHT22;7744;52.172;10.668;2023-08-06T06:38:00;18.20;99.90
15286;DHT22;7744;52.172;10.668;2023-08-06T06:40:26;18.50;99.90
15286;DHT22;7744;52.172;10.668;2023-08-06T06:42:52;18.70;1.00
15286;DHT22;7744;52.172;10.668;2023-08-06T06:45:17;18.80;1.00
15286;DHT22;7744;52.172;10.668;2023-08-06T06:47:43;18.90;1.00
15286;DHT22;7744;52.172;10.668;2023-08-06T06:50:09;19.10;1.00
15286;DHT22;7744;52.172;10.668;2023-08-06T06:52:35;19.40;1.00
15286;DHT22;7744;52.172;10.668;2023-08-06T06:55:01;19.50;1.00
15286;DHT22;7744;52.172;10.668;2023-08-06T06:57:28;19.70;1.00
15286;DHT22;7744;52.172;10.668;2023-08-06T06:59:54;20.00;99.90
15286;DHT22;7744;52.172;10.668;2023-08-06T07:02:20;20.30;99.90
15286;DHT22;7744;52.172;10.668;2023-08-06T07:04:46;18.40;99.90
15286;DHT22;7744;52.172;10.668;2023-08-06T07:07:11;20.90;99.90
15286;DHT22;7744;52.172;10.668;2023-08-06T07:09:37;21.10;99.90
15286;DHT22;7744;52.172;10.668;2023-08-06T07:12:03;21.30;99.90
15286;DHT22;7744;52.172;10.668;2023-08-06T07:14:30;21.40;99.90
15286;DHT22;7744;52.172;10.668;2023-08-06T07:16:56;21.20;99.90
15286;DHT22;7744;52.172;10.668;2023-08-06T07:19:21;21.70;99.90
15286;DHT22;7744;52.172;10.668;2023-08-06T07:21:47;22.10;99.90
15286;DHT22;7744;52.172;10.668;2023-08-06T07:24:21;22.30;91.30
15286;DHT22;7744;52.172;10.668;2023-08-06T07:26:47;22.00;60.80
15286;DHT22;7744;52.172;10.668;2023-08-06T07:29:13;20.70;33.00
15286;DHT22;7744;52.172;10.668;2023-08-06T07:31:45;20.90;50.10
15286;DHT22;7744;52.172;10.668;2023-08-06T07:34:10;21.00;80.10
15286;DHT22;7744;52.172;10.668;2023-08-06T07:36:37;20.90;58.30
15286;DHT22;7744;52.172;10.668;2023-08-06T07:39:03;20.90;69.40
15286;DHT22;7744;52.172;10.668;2023-08-06T07:41:32;20.90;92.00
15286;DHT22;7744;52.172;10.668;2023-08-06T07:43:57;20.30;49.60
15286;DHT22;7744;52.172;10.668;2023-08-06T07:46:23;19.90;57.30
15286;DHT22;7744;52.172;10.668;2023-08-06T07:48:50;20.10;86.30
15286;DHT22;7744;52.172;10.668;2023-08-06T07:51:15;20.40;92.30
15286;DHT22;7744;52.172;10.668;2023-08-06T07:53:41;20.50;80.50
15286;DHT22;7744;52.172;10.668;2023-08-06T07:56:08;20.70;96.90
15286;DHT22;7744;52.172;10.668;2023-08-06T07:58:34;20.80;71.20
15286;DHT22;7744;52.172;10.668;2023-08-06T08:00:59;20.70;57.00
15286;DHT22;7744;52.172;10.668;2023-08-06T08:03:25;20.40;69.50
15286;DHT22;7744;52.172;10.668;2023-08-06T08:05:54;20.60;88.20
15286;DHT22;7744;52.172;10.668;2023-08-06T08:08:24;20.80;96.00
15286;DHT22;7744;52.172;10.668;2023-08-06T08:10:50;20.80;93.50
15286;DHT22;7744;52.172;10.668;2023-08-06T08:13:15;20.70;74.90
15286;DHT22;7744;52.172;10.668;2023-08-06T08:15:41;20.70;66.50
15286;DHT22;7744;52.172;10.668;2023-08-06T08:18:07;20.60;20.20
15286;DHT22;7744;52.172;10.668;2023-08-06T08:20:33;20.90;27.60
15286;DHT22;7744;52.172;10.668;2023-08-06T08:23:01;20.70;38.00
15286;DHT22;7744;52.172;10.668;2023-08-06T08:25:27;20.50;52.80
15286;DHT22;7744;52.172;10.668;2023-08-06T08:27:54;20.60;44.80
15286;DHT22;7744;52.172;10.668;2023-08-06T08:30:20;21.00;54.60
15286;DHT22;7744;52.172;10.668;2023-08-06T08:32:45;21.20;57.20
15286;DHT22;7744;52.172;10.668;2023-08-06T08:35:11;20.60;15.10
15286;DHT22;7744;52.172;10.668;2023-08-06T08:37:38;20.80;41.60
15286;DHT22;7744;52.172;10.668;2023-08-06T08:40:06;20.30;21.50
15286;DHT22;7744;52.172;10.668;2023-08-06T08:42:32;21.30;1.00
15286;DHT22;7744;52.172;10.668;2023-08-06T08:44:57;21.40;1.00
15286;DHT22;7744;52.172;10.668;2023-08-06T08:47:24;21.40;1.00
15286;DHT22;7744;52.172;10.668;2023-08-06T08:49:54;21.20;1.00
15286;DHT22;7744;52.172;10.668;2023-08-06T08:52:21;21.10;1.00
15286;DHT22;7744;52.172;10.668;2023-08-06T08:54:48;21.40;1.00
15286;DHT22;7744;52.172;10.668;2023-08-06T08:57:19;21.60;1.00
15286;DHT22;7744;52.172;10.668;2023-08-06T08:59:45;21.80;1.00
15286;DHT22;7744;52.172;10.668;2023-08-06T09:02:12;22.00;1.00
15286;DHT22;7744;52.172;10.668;2023-08-06T09:04:40;21.90;1.00
15286;DHT22;7744;52.172;10.668;2023-08-06T09:07:08;21.60;1.00
15286;DHT22;7744;52.172;10.668;2023-08-06T09:09:37;21.20;1.00
15286;DHT22;7744;52.172;10.668;2023-08-06T09:12:25;21.30;1.00
15286;DHT22;7744;52.172;10.668;2023-08-06T09:14:51;21.40;1.00
15286;DHT22;7744;52.172;10.668;2023-08-06T09:17:17;21.20;1.00
15286;DHT22;7744;52.172;10.668;2023-08-06T09:19:46;21.30;1.00
15286;DHT22;7744;52.172;10.668;2023-08-06T09:22:14;21.00;1.00
15286;DHT22;7744;52.172;10.668;2023-08-06T09:24:43;21.10;1.00
15286;DHT22;7744;52.172;10.668;2023-08-06T09:27:13;21.30;1.00
15286;DHT22;7744;52.172;10.668;2023-08-06T09:29:45;21.60;1.00
15286;DHT22;7744;52.172;10.668;2023-08-06T09:32:14;21.60;1.00
15286;DHT22;7744;52.172;10.668;2023-08-06T09:34:41;21.40;1.00
15286;DHT22;7744;52.172;10.668;2023-08-06T09:37:09;21.30;1.00
15286;DHT22;7744;52.172;10.668;2023-08-06T09:39:35;21.60;1.00
15286;DHT22;7744;52.172;10.668;2023-08-06T09:42:02;21.80;1.00
15286;DHT22;7744;52.172;10.668;2023-08-06T09:44:30;21.70;1.00
15286;DHT22;7744;52.172;10.668;2023-08-06T09:47:02;21.50;1.00
15286;DHT22;7744;52.172;10.668;2023-08-06T09:49:40;21.50;1.00
15286;DHT22;7744;52.172;10.668;2023-08-06T09:52:12;21.40;1.00
15286;DHT22;7744;52.172;10.668;2023-08-06T09:54:38;21.70;1.00
15286;DHT22;7744;52.172;10.668;2023-08-06T09:57:04;22.00;1.00
15286;DHT22;7744;52.172;10.668;2023-08-06T09:59:32;22.00;1.00
15286;DHT22;7744;52.172;10.668;2023-08-06T10:01:58;21.60;1.00
15286;DHT22;7744;52.172;10.668;2023-08-06T10:04:24;21.70;1.00
15286;DHT22;7744;52.172;10.668;2023-08-06T10:06:50;22.00;1.00
15286;DHT22;7744;52.172;10.668;2023-08-06T10:09:16;22.10;1.00
15286;DHT22;7744;52.172;10.668;2023-08-06T10:11:50;21.80;1.00
15286;DHT22;7744;52.172;10.668;2023-08-06T10:14:33;22.20;1.00
15286;DHT22;7744;52.172;10.668;2023-08-06T10:17:01;22.50;1.00
15286;DHT22;7744;52.172;10.668;2023-08-06T10:19:27;22.30;1.00
15286;DHT22;7744;52.172;10.668;2023-08-06T10:22:14;21.90;1.00
15286;DHT22;7744;52.172;10.668;2023-08-06T10:24:55;21.90;1.00
15286;DHT22;7744;52.172;10.668;2023-08-06T10:33:12;22.50;1.00
15286;DHT22;7744;52.172;10.668;2023-08-06T10:38:20;22.90;1.00
15286;DHT22;7744;52.172;10.668;2023-08-06T10:43:36;22.10;1.00
15286;DHT22;7744;52.172;10.668;2023-08-06T10:46:27;22.10;1.00
15286;DHT22;7744;52.172;10.668;2023-08-06T10:48:53;22.30;1.00
15286;DHT22;7744;52.172;10.668;2023-08-06T10:51:19;22.60;1.00
15286;DHT22;7744;52.172;10.668;2023-08-06T10:53:47;22.30;1.00
15286;DHT22;7744;52.172;10.668;2023-08-06T10:56:17;22.20;1.00
15286;DHT22;7744;52.172;10.668;2023-08-06T10:58:44;22.00;1.00
15286;DHT22;7744;52.172;10.668;2023-08-06T11:01:12;22.00;1.00
15286;DHT22;7744;52.172;10.668;2023-08-06T11:03:38;22.10;1.00
15286;DHT22;7744;52.172;10.668;2023-08-06T11:06:06;22.20;1.00
15286;DHT22;7744;52.172;10.668;2023-08-06T11:08:37;22.00;1.00
15286;DHT22;7744;52.172;10.668;2023-08-06T11:11:10;21.90;1.00
15286;DHT22;7744;52.172;10.668;2023-08-06T11:13:37;22.10;1.00
15286;DHT22;7744;52.172;10.668;2023-08-06T11:16:05;22.40;1.00
15286;DHT22;7744;52.172;10.668;2023-08-06T11:18:31;22.20;1.00
15286;DHT22;7744;52.172;10.668;2023-08-06T11:20:59;22.40;1.00
15286;DHT22;7744;52.172;10.668;2023-08-06T11:23:29;22.70;1.00
15286;DHT22;7744;52.172;10.668;2023-08-06T11:25:56;23.00;1.00
15286;DHT22;7744;52.172;10.668;2023-08-06T11:28:22;23.00;1.00
15286;DHT22;7744;52.172;10.668;2023-08-06T11:30:48;23.10;1.00
15286;DHT22;7744;52.172;10.668;2023-08-06T11:33:21;22.70;1.00
15286;DHT22;7744;52.172;10.668;2023-08-06T11:35:48;22.60;1.00
15286;DHT22;7744;52.172;10.668;2023-08-06T11:38:14;22.70;1.00
15286;DHT22;7744;52.172;10.668;2023-08-06T11:40:40;22.70;1.00
15286;DHT22;7744;52.172;10.668;2023-08-06T11:43:06;23.00;1.00
15286;DHT22;7744;52.172;10.668;2023-08-06T11:45:35;22.60;1.00
15286;DHT22;7744;52.172;10.668;2023-08-06T11:48:10;22.80;1.00
15286;DHT22;7744;52.172;10.668;2023-08-06T11:50:37;22.70;1.00
15286;DHT22;7744;52.172;10.668;2023-08-06T11:53:06;22.50;1.00
15286;DHT22;7744;52.172;10.668;2023-08-06T11:55:32;22.70;1.00
15286;DHT22;7744;52.172;10.668;2023-08-06T11:58:04;23.10;1.00
15286;DHT22;7744;52.172;10.668;2023-08-06T12:00:37;23.00;1.00
15286;DHT22;7744;52.172;10.668;2023-08-06T12:03:05;23.20;1.00
15286;DHT22;7744;52.172;10.668;2023-08-06T12:05:31;23.20;1.00
15286;DHT22;7744;52.172;10.668;2023-08-06T12:08:00;23.10;1.00
15286;DHT22;7744;52.172;10.668;2023-08-06T12:10:30;23.20;1.00
15286;DHT22;7744;52.172;10.668;2023-08-06T12:12:57;22.80;1.00
15286;DHT22;7744;52.172;10.668;2023-08-06T12:15:23;22.60;1.00
15286;DHT22;7744;52.172;10.668;2023-08-06T12:17:50;22.50;1.00
15286;DHT22;7744;52.172;10.668;2023-08-06T12:20:15;22.00;1.00
15286;DHT22;7744;52.172;10.668;2023-08-06T12:22:41;21.90;1.00
15286;DHT22;7744;52.172;10.668;2023-08-06T12:25:12;21.90;1.00
15286;DHT22;7744;52.172;10.668;2023-08-06T12:27:39;22.20;1.00
15286;DHT22;7744;52.172;10.668;2023-08-06T12:30:05;22.40;1.00
15286;DHT22;7744;52.172;10.668;2023-08-06T12:32:32;22.40;1.00
15286;DHT22;7744;52.172;10.668;2023-08-06T12:34:57;22.60;1.00
15286;DHT22;7744;52.172;10.668;2023-08-06T12:37:27;23.00;1.00
15286;DHT22;7744;52.172;10.668;2023-08-06T12:39:53;23.10;1.00
15286;DHT22;7744;52.172;10.668;2023-08-06T12:42:19;23.00;1.00
15286;DHT22;7744;52.172;10.668;2023-08-06T12:44:44;22.70;1.00
15286;DHT22;7744;52.172;10.668;2023-08-06T12:47:10;22.80;1.00
15286;DHT22;7744;52.172;10.668;2023-08-06T12:49:36;22.60;1.00
15286;DHT22;7744;52.172;10.668;2023-08-06T12:52:02;22.40;1.00
15286;DHT22;7744;52.172;10.668;2023-08-06T12:54:31;22.40;1.00
15286;DHT22;7744;52.172;10.668;2023-08-06T12:57:02;22.50;1.00
15286;DHT22;7744;52.172;10.668;2023-08-06T12:59:28;22.60;1.00
15286;DHT22;7744;52.172;10.668;2023-08-06T13:01:53;22.60;1.00
15286;DHT22;7744;52.172;10.668;2023-08-06T13:04:19;22.60;1.00
15286;DHT22;7744;52.172;10.668;2023-08-06T13:06:45;22.50;1.00
15286;DHT22;7744;52.172;10.668;2023-08-06T13:09:11;22.30;1.00
15286;DHT22;7744;52.172;10.668;2023-08-06T13:11:37;22.50;1.00
15286;DHT22;7744;52.172;10.668;2023-08-06T13:14:08;22.60;99.90
15286;DHT22;7744;52.172;10.668;2023-08-06T13:16:35;22.90;99.90
15286;DHT22;7744;52.172;10.668;2023-08-06T13:19:02;22.80;1.00
15286;DHT22;7744;52.172;10.668;2023-08-06T13:21:32;22.40;1.00
15286;DHT22;7744;52.172;10.668;2023-08-06T13:24:00;22.10;1.00
15286;DHT22;7744;52.172;10.668;2023-08-06T13:26:27;21.90;1.00
15286;DHT22;7744;52.172;10.668;2023-08-06T13:28:52;21.70;1.00
15286;DHT22;7744;52.172;10.668;2023-08-06T13:31:18;21.60;1.00
15286;DHT22;7744;52.172;10.668;2023-08-06T13:33:44;21.70;1.00
15286;DHT22;7744;52.172;10.668;2023-08-06T13:36:10;21.90;1.00
15286;DHT22;7744;52.172;10.668;2023-08-06T13:38:35;22.10;1.00
15286;DHT22;7744;52.172;10.668;2023-08-06T13:41:01;22.40;1.00
15286;DHT22;7744;52.172;10.668;2023-08-06T13:43:27;22.50;1.00
15286;DHT22;7744;52.172;10.668;2023-08-06T13:45:53;22.40;99.90
15286;DHT22;7744;52.172;10.668;2023-08-06T13:48:19;22.40;99.90
15286;DHT22;7744;52.172;10.668;2023-08-06T13:50:44;22.50;1.00
15286;DHT22;7744;52.172;10.668;2023-08-06T13:53:10;22.80;99.90
15286;DHT22;7744;52.172;10.668;2023-08-06T13:55:36;23.00;99.90
15286;DHT22;7744;52.172;10.668;2023-08-06T13:58:02;22.90;99.90
15286;DHT22;7744;52.172;10.668;2023-08-06T14:00:28;22.90;1.00
15286;DHT22;7744;52.172;10.668;2023-08-06T14:02:53;22.50;99.90
15286;DHT22;7744;52.172;10.668;2023-08-06T14:05:19;22.50;99.90
15286;DHT22;7744;52.172;10.668;2023-08-06T14:07:45;22.30;99.90
15286;DHT22;7744;52.172;10.668;2023-08-06T14:10:11;22.00;99.90
15286;DHT22;7744;52.172;10.668;2023-08-06T14:12:36;22.20;99.90
15286;DHT22;7744;52.172;10.668;2023-08-06T14:15:02;23.00;99.90
15286;DHT22;7744;52.172;10.668;2023-08-06T14:17:29;22.50;99.90
15286;DHT22;7744;52.172;10.668;2023-08-06T14:19:54;22.50;99.90
15286;DHT22;7744;52.172;10.668;2023-08-06T14:22:22;22.30;99.90
15286;DHT22;7744;52.172;10.668;2023-08-06T14:24:47;22.30;99.90
15286;DHT22;7744;52.172;10.668;2023-08-06T14:27:13;22.60;99.90
15286;DHT22;7744;52.172;10.668;2023-08-06T14:29:39;22.80;99.90
15286;DHT22;7744;52.172;10.668;2023-08-06T14:32:05;22.80;99.90
15286;DHT22;7744;52.172;10.668;2023-08-06T14:34:30;22.60;99.90
15286;DHT22;7744;52.172;10.668;2023-08-06T14:36:56;22.30;99.90
15286;DHT22;7744;52.172;10.668;2023-08-06T14:39:22;22.20;1.00
15286;DHT22;7744;52.172;10.668;2023-08-06T14:41:48;22.20;99.90
15286;DHT22;7744;52.172;10.668;2023-08-06T14:44:14;22.50;99.90
15286;DHT22;7744;52.172;10.668;2023-08-06T14:46:40;22.70;1.00
15286;DHT22;7744;52.172;10.668;2023-08-06T14:49:06;22.40;99.90
15286;DHT22;7744;52.172;10.668;2023-08-06T14:51:31;22.40;99.90
15286;DHT22;7744;52.172;10.668;2023-08-06T14:53:57;22.30;99.90
15286;DHT22;7744;52.172;10.668;2023-08-06T14:56:23;22.30;99.90
15286;DHT22;7744;52.172;10.668;2023-08-06T14:58:48;22.50;99.90
15286;DHT22;7744;52.172;10.668;2023-08-06T15:01:16;22.90;99.90
15286;DHT22;7744;52.172;10.668;2023-08-06T15:03:51;23.10;99.90
15286;DHT22;7744;52.172;10.668;2023-08-06T15:06:20;23.50;99.90
15286;DHT22;7744;52.172;10.668;2023-08-06T15:08:47;23.50;99.90
15286;DHT22;7744;52.172;10.668;2023-08-06T15:11:15;23.50;99.90
15286;DHT22;7744;52.172;10.668;2023-08-06T15:13:52;23.10;99.90
15286;DHT22;7744;52.172;10.668;2023-08-06T16:05:36;21.40;1.00
15286;DHT22;7744;52.172;10.668;2023-08-06T16:08:01;21.50;1.00
15286;DHT22;7744;52.172;10.668;2023-08-06T16:10:27;21.60;1.00
15286;DHT22;7744;52.172;10.668;2023-08-06T16:12:53;21.70;99.90
15286;DHT22;7744;52.172;10.668;2023-08-06T16:15:18;21.90;99.90
15286;DHT22;7744;52.172;10.668;2023-08-06T16:17:46;21.90;99.90
15286;DHT22;7744;52.172;10.668;2023-08-06T16:20:12;21.90;99.90
15286;DHT22;7744;52.172;10.668;2023-08-06T16:22:40;22.10;99.90
15286;DHT22;7744;52.172;10.668;2023-08-06T16:25:06;22.20;1.00
15286;DHT22;7744;52.172;10.668;2023-08-06T16:27:35;22.10;1.00
15286;DHT22;7744;52.172;10.668;2023-08-06T16:30:01;22.00;99.90
15286;DHT22;7744;52.172;10.668;2023-08-06T16:32:26;22.00;1.00
15286;DHT22;7744;52.172;10.668;2023-08-06T16:34:52;21.90;1.00
15286;DHT22;7744;52.172;10.668;2023-08-06T16:37:18;21.90;1.00
15286;DHT22;7744;52.172;10.668;2023-08-06T16:39:43;21.90;1.00
15286;DHT22;7744;52.172;10.668;2023-08-06T16:42:09;22.00;1.00
15286;DHT22;7744;52.172;10.668;2023-08-06T16:44:35;21.80;1.00
15286;DHT22;7744;52.172;10.668;2023-08-06T16:47:01;21.50;1.00
15286;DHT22;7744;52.172;10.668;2023-08-06T16:49:37;21.40;1.00
15286;DHT22;7744;52.172;10.668;2023-08-06T16:52:04;21.40;1.00